createdAt,value
2023-04-18T00:01:38.350Z,91.28
2023-04-18T00:04:03.199Z,91.97
2023-04-18T00:06:27.001Z,92.34
2023-04-18T00:08:51.044Z,91.56
2023-04-18T00:11:16.018Z,91.73
2023-04-18T00:13:39.657Z,91.57
2023-04-18T00:16:03.697Z,90.80
2023-04-18T00:18:27.922Z,91.32
2023-04-18T00:20:51.474Z,90.79
2023-04-18T00:23:15.230Z,88.46
2023-04-18T00:25:38.772Z,91.51
2023-04-18T00:28:04.230Z,90.35
2023-04-18T00:30:28.254Z,91.97
2023-04-18T00:32:53.165Z,90.83
2023-04-18T00:35:16.749Z,89.25
2023-04-18T00:37:43.118Z,89.44
2023-04-18T00:40:08.235Z,89.84
2023-04-18T00:42:31.927Z,90.99
2023-04-18T00:44:56.987Z,92.06
2023-04-18T00:47:20.776Z,91.55
2023-04-18T00:49:44.754Z,89.00
2023-04-18T00:52:08.542Z,89.83
2023-04-18T00:54:32.166Z,89.79
2023-04-18T00:56:56.148Z,89.86
2023-04-18T00:59:19.907Z,89.66
2023-04-18T01:01:45.324Z,88.94
2023-04-18T01:04:10.024Z,88.23
2023-04-18T01:06:34.083Z,88.52
2023-04-18T01:08:58.632Z,92.16
2023-04-18T01:11:22.356Z,89.66
2023-04-18T01:14:01.085Z,90.14
2023-04-18T01:16:24.876Z,89.01
2023-04-18T01:18:50.333Z,88.06
2023-04-18T01:21:14.732Z,89.52
2023-04-18T01:23:38.532Z,89.73
2023-04-18T01:26:03.956Z,88.55
2023-04-18T01:28:27.823Z,89.41
2023-04-18T01:30:52.814Z,90.27
2023-04-18T01:33:16.463Z,90.98
2023-04-18T01:35:42.546Z,91.39
2023-04-18T01:38:06.213Z,93.15
2023-04-18T01:40:31.391Z,93.46
2023-04-18T01:42:56.470Z,92.16
2023-04-18T01:45:22.340Z,91.51
2023-04-18T01:47:46.192Z,89.71
2023-04-18T01:50:11.184Z,90.98
2023-04-18T01:52:34.759Z,90.47
2023-04-18T01:54:58.435Z,91.83
2023-04-18T01:57:22.406Z,91.80
2023-04-18T01:59:48.063Z,91.13
2023-04-18T02:02:12.005Z,91.33
2023-04-18T02:04:35.822Z,92.99
2023-04-18T02:06:59.364Z,91.86
2023-04-18T02:09:23.002Z,93.60
2023-04-18T02:11:46.597Z,93.73
2023-04-18T02:14:10.472Z,94.19
2023-04-18T02:16:35.779Z,93.52
2023-04-18T02:19:00.248Z,93.96
2023-04-18T02:21:24.405Z,93.90
2023-04-18T02:23:48.850Z,94.21
2023-04-18T02:26:12.424Z,93.81
2023-04-18T02:28:38.962Z,94.93
2023-04-18T02:31:02.539Z,93.79
2023-04-18T02:33:27.692Z,94.93
2023-04-18T02:35:51.215Z,94.48
2023-04-18T02:38:14.961Z,94.14
2023-04-18T02:40:38.823Z,94.83
2023-04-18T02:43:02.669Z,95.36
2023-04-18T02:45:26.289Z,93.91
2023-04-18T02:47:55.395Z,93.51
2023-04-18T02:50:21.299Z,92.76
2023-04-18T02:52:45.006Z,92.93
2023-04-18T02:55:09.465Z,93.95
2023-04-18T02:57:36.833Z,93.67
2023-04-18T03:00:20.966Z,93.82
2023-04-18T03:03:10.550Z,93.70
2023-04-18T03:05:40.294Z,93.10
2023-04-18T03:08:04.078Z,94.33
2023-04-18T03:10:28.005Z,94.66
2023-04-18T03:12:52.449Z,93.72
2023-04-18T03:15:16.761Z,94.65
2023-04-18T03:17:41.146Z,95.39
2023-04-18T03:20:05.222Z,94.95
2023-04-18T03:22:30.266Z,95.21
2023-04-18T03:24:55.605Z,94.21
2023-04-18T03:27:28.073Z,94.74
2023-04-18T03:29:51.696Z,94.69
2023-04-18T03:32:15.319Z,94.36
2023-04-18T03:34:38.920Z,93.89
2023-04-18T03:37:04.702Z,94.15
2023-04-18T03:39:34.828Z,93.48
2023-04-18T03:41:58.606Z,93.20
2023-04-18T03:44:22.263Z,93.64
2023-04-18T03:46:46.315Z,92.10
2023-04-18T03:49:10.033Z,92.52
2023-04-18T03:51:43.248Z,92.18
2023-04-18T03:54:07.599Z,92.55
2023-04-18T03:56:32.710Z,93.74
2023-04-18T03:58:56.332Z,93.02
2023-04-18T04:01:20.147Z,92.88
2023-04-18T04:03:43.971Z,92.19
2023-04-18T04:06:08.346Z,92.73
2023-04-18T04:08:31.977Z,92.74
2023-04-18T04:10:55.570Z,93.15
2023-04-18T04:13:21.245Z,93.31
2023-04-18T04:15:45.833Z,92.80
2023-04-18T04:18:09.874Z,92.39
2023-04-18T04:20:36.439Z,93.98
2023-04-18T04:23:07.457Z,93.63
2023-04-18T04:25:33.393Z,93.13
2023-04-18T04:28:01.552Z,93.35
2023-04-18T04:30:28.711Z,94.06
2023-04-18T04:32:52.287Z,93.35
2023-04-18T04:35:16.342Z,93.32
2023-04-18T04:37:41.268Z,93.30
2023-04-18T04:40:17.564Z,92.97
2023-04-18T04:42:45.984Z,93.40
2023-04-18T04:45:17.431Z,92.79
2023-04-18T04:47:43.713Z,91.34
2023-04-18T04:50:14.757Z,91.75
2023-04-18T04:52:40.196Z,91.29
2023-04-18T04:55:03.825Z,91.97
2023-04-18T04:57:27.562Z,91.81
2023-04-18T04:59:51.097Z,92.62
2023-04-18T05:02:14.874Z,92.13
2023-04-18T05:04:40.047Z,91.58
2023-04-18T05:07:03.775Z,91.13
2023-04-18T05:09:27.384Z,91.81
2023-04-18T05:11:51.034Z,91.08
2023-04-18T05:14:14.843Z,91.10
2023-04-18T05:16:38.705Z,91.32
2023-04-18T05:19:02.421Z,91.07
2023-04-18T05:21:28.732Z,91.60
2023-04-18T05:23:52.244Z,91.67
2023-04-18T05:26:15.933Z,91.80
2023-04-18T05:28:39.527Z,91.88
2023-04-18T05:31:03.135Z,91.65
2023-04-18T05:33:26.768Z,91.48
2023-04-18T05:35:50.367Z,91.99
2023-04-18T05:38:15.286Z,91.41
2023-04-18T05:40:38.955Z,90.88
2023-04-18T05:43:02.731Z,90.46
2023-04-18T05:45:26.390Z,89.38
2023-04-18T05:47:50.077Z,89.82
2023-04-18T05:50:13.789Z,89.96
2023-04-18T05:52:39.068Z,89.55
2023-04-18T05:55:04.156Z,90.16
2023-04-18T05:57:27.653Z,88.37
2023-04-18T05:59:51.247Z,88.87
2023-04-18T06:02:14.990Z,88.20
2023-04-18T06:04:38.859Z,87.66
2023-04-18T06:07:02.457Z,87.57
2023-04-18T06:09:26.092Z,87.17
2023-04-18T06:11:51.855Z,85.46
2023-04-18T06:14:15.962Z,82.96
2023-04-18T06:16:39.910Z,82.90
2023-04-18T06:19:03.618Z,81.53
2023-04-18T06:21:27.171Z,79.76
2023-04-18T06:23:50.801Z,79.10
2023-04-18T06:26:14.550Z,79.08
2023-04-18T06:28:39.516Z,80.83
2023-04-18T06:31:03.118Z,80.75
2023-04-18T06:33:26.920Z,80.52
2023-04-18T06:35:50.762Z,80.56
2023-04-18T06:38:14.511Z,79.97
2023-04-18T06:40:38.132Z,80.70
2023-04-18T06:43:02.023Z,80.93
2023-04-18T06:45:27.169Z,80.92
2023-04-18T07:00:01.219Z,80.35
2023-04-18T07:02:25.023Z,79.99
2023-04-18T07:04:48.677Z,80.24
2023-04-18T07:07:12.418Z,80.15
2023-04-18T07:09:36.156Z,79.32
2023-04-18T07:11:59.829Z,79.69
2023-04-18T07:14:25.709Z,79.29
2023-04-18T07:16:50.933Z,79.80
2023-04-18T07:19:14.691Z,79.46
2023-04-18T07:21:40.586Z,80.57
2023-04-18T07:24:04.292Z,77.79
2023-04-18T07:26:28.408Z,78.56
2023-04-18T07:28:52.155Z,76.80
2023-04-18T07:31:16.708Z,75.97
2023-04-18T07:33:43.465Z,76.26
2023-04-18T07:36:08.175Z,76.25
2023-04-18T07:38:31.890Z,76.41
2023-04-18T07:40:58.826Z,72.77
2023-04-18T07:43:22.830Z,73.45
2023-04-18T07:45:46.568Z,73.47
2023-04-18T07:48:10.253Z,73.16
2023-04-18T07:50:35.408Z,72.80
2023-04-18T07:52:59.116Z,73.08
2023-04-18T07:55:22.870Z,73.76
2023-04-18T07:57:50.315Z,73.58
2023-04-18T08:00:16.213Z,73.33
2023-04-18T08:02:39.923Z,70.49
2023-04-18T08:05:03.871Z,72.27
2023-04-18T08:07:28.935Z,70.76
2023-04-18T08:09:52.581Z,70.90
2023-04-18T08:12:16.137Z,70.09
2023-04-18T08:14:39.770Z,73.05
2023-04-18T08:17:03.762Z,71.37
2023-04-18T08:19:27.476Z,70.61
2023-04-18T08:21:52.493Z,69.55
2023-04-18T08:24:17.583Z,69.39
2023-04-18T08:26:41.121Z,69.44
2023-04-18T08:29:04.766Z,70.29
2023-04-18T08:31:28.320Z,70.41
2023-04-18T08:33:52.415Z,71.23
2023-04-18T08:36:16.373Z,70.50
2023-04-18T08:38:40.495Z,71.15
2023-04-18T08:41:05.501Z,70.03
2023-04-18T08:43:31.164Z,70.01
2023-04-18T08:46:00.611Z,69.82
2023-04-18T08:48:24.214Z,69.98
2023-04-18T08:50:47.757Z,69.56
2023-04-18T08:53:12.035Z,70.23
2023-04-18T08:55:35.972Z,70.07
2023-04-18T08:58:01.401Z,71.11
2023-04-18T09:00:25.290Z,70.74
2023-04-18T09:02:49.636Z,69.94
2023-04-18T09:05:16.575Z,69.87
2023-04-18T09:07:40.665Z,70.40
2023-04-18T09:10:04.302Z,70.18
2023-04-18T09:12:29.660Z,70.76
2023-04-18T09:14:57.921Z,71.47
2023-04-18T09:17:34.518Z,71.34
2023-04-18T09:19:58.964Z,72.26
2023-04-18T09:22:22.921Z,70.73
2023-04-18T09:24:53.566Z,71.00
2023-04-18T09:27:17.191Z,71.57
2023-04-18T09:29:46.558Z,70.27
2023-04-18T09:32:11.493Z,69.61
2023-04-18T09:34:38.358Z,68.56
2023-04-18T09:37:10.222Z,69.15
2023-04-18T09:39:33.933Z,69.34
2023-04-18T09:42:00.701Z,69.86
2023-04-18T09:44:24.337Z,67.40
2023-04-18T09:46:49.449Z,68.25
2023-04-18T09:49:14.975Z,67.46
2023-04-18T09:51:41.575Z,66.47
2023-04-18T09:54:06.634Z,66.09
2023-04-18T09:56:33.417Z,67.37
2023-04-18T09:59:02.452Z,67.69
2023-04-18T10:01:29.606Z,65.53
2023-04-18T10:03:55.138Z,64.07
2023-04-18T10:06:20.329Z,65.23
2023-04-18T10:08:44.838Z,64.84
2023-04-18T10:11:08.393Z,66.94
2023-04-18T10:13:33.535Z,63.80
2023-04-18T10:15:57.626Z,64.17
2023-04-18T10:18:25.029Z,65.34
2023-04-18T10:20:48.703Z,64.63
2023-04-18T10:23:39.630Z,65.85
2023-04-18T10:26:04.091Z,64.15
2023-04-18T10:28:28.279Z,63.82
2023-04-18T10:31:07.486Z,63.90
2023-04-18T10:33:34.482Z,65.07
2023-04-18T10:36:17.349Z,66.22
2023-04-18T10:38:47.920Z,64.39
2023-04-18T10:41:17.288Z,65.30
2023-04-18T10:44:15.842Z,65.36
2023-04-18T10:46:41.822Z,64.89
2023-04-18T10:49:16.789Z,62.80
2023-04-18T10:51:40.743Z,63.87
2023-04-18T10:54:09.879Z,65.53
2023-04-18T10:56:33.563Z,63.93
2023-04-18T10:59:03.619Z,63.99
2023-04-18T11:01:31.702Z,64.19
2023-04-18T11:03:57.173Z,62.75
2023-04-18T11:06:20.899Z,62.68
2023-04-18T11:08:45.297Z,62.47
2023-04-18T11:11:11.384Z,63.67
2023-04-18T11:13:36.892Z,65.47
2023-04-18T11:16:00.714Z,62.35
2023-04-18T11:18:24.363Z,63.70
2023-04-18T11:20:50.287Z,62.91
2023-04-18T11:23:20.572Z,62.61
2023-04-18T11:25:45.274Z,64.69
2023-04-18T11:28:13.487Z,65.19
2023-04-18T11:30:41.936Z,63.67
2023-04-18T11:33:08.697Z,62.56
2023-04-18T11:35:32.717Z,62.17
2023-04-18T11:37:56.417Z,62.95
2023-04-18T11:40:20.070Z,62.42
2023-04-18T11:42:44.005Z,63.35
2023-04-18T11:45:13.614Z,61.22
2023-04-18T11:47:37.188Z,62.79
2023-04-18T11:50:02.419Z,61.94
2023-04-18T11:52:28.696Z,61.95
2023-04-18T11:54:52.655Z,62.22
2023-04-18T11:57:25.123Z,61.99
2023-04-18T11:59:54.134Z,61.96
2023-04-18T12:02:19.239Z,61.91
2023-04-18T12:04:53.436Z,61.92
2023-04-18T12:07:33.064Z,63.19
2023-04-18T12:09:56.726Z,62.86
2023-04-18T12:12:20.994Z,62.15
2023-04-18T12:14:44.862Z,61.90
2023-04-18T12:17:08.474Z,61.65
2023-04-18T12:19:34.291Z,63.58
2023-04-18T12:22:01.437Z,61.28
2023-04-18T12:24:25.271Z,61.81
2023-04-18T12:26:50.018Z,62.50
2023-04-18T12:29:13.939Z,62.44
2023-04-18T12:31:37.669Z,61.78
2023-04-18T12:34:01.347Z,61.34
2023-04-18T12:36:28.435Z,61.65
2023-04-18T12:38:52.099Z,61.35
2023-04-18T12:41:15.619Z,61.69
2023-04-18T12:43:39.246Z,61.22
2023-04-18T12:46:02.821Z,62.18
2023-04-18T12:48:26.517Z,63.26
2023-04-18T12:50:50.062Z,62.23
2023-04-18T12:53:15.067Z,61.95
2023-04-18T12:55:38.770Z,61.48
2023-04-18T12:58:02.726Z,61.36
2023-04-18T13:00:29.260Z,63.13
2023-04-18T13:02:53.501Z,61.11
2023-04-18T13:05:20.039Z,61.40
2023-04-18T13:07:44.484Z,61.91
2023-04-18T13:10:11.980Z,61.89
2023-04-18T13:12:35.675Z,60.92
2023-04-18T13:14:59.458Z,60.71
2023-04-18T13:17:23.208Z,60.64
2023-04-18T13:19:46.859Z,61.23
2023-04-18T13:22:10.534Z,60.30
2023-04-18T13:24:34.089Z,60.27
2023-04-18T13:26:59.113Z,60.16
2023-04-18T13:29:22.657Z,61.20
2023-04-18T13:31:46.683Z,60.24
2023-04-18T13:34:10.266Z,59.65
2023-04-18T13:36:35.010Z,60.65
2023-04-18T13:38:59.221Z,59.42
2023-04-18T13:41:24.233Z,58.77
2023-04-18T13:43:49.148Z,60.19
2023-04-18T13:46:13.754Z,60.36
2023-04-18T13:48:37.366Z,59.25
2023-04-18T13:51:01.367Z,58.58
2023-04-18T13:53:24.943Z,59.87
2023-04-18T13:55:48.595Z,59.18
2023-04-18T13:58:12.181Z,58.01
2023-04-18T14:00:37.172Z,58.13
2023-04-18T14:03:00.841Z,58.65
2023-04-18T14:05:24.598Z,57.75
2023-04-18T14:07:48.895Z,58.46
2023-04-18T14:10:12.994Z,58.11
2023-04-18T14:12:36.730Z,58.32
2023-04-18T14:15:00.909Z,57.86
2023-04-18T14:17:26.191Z,58.24
2023-04-18T14:19:51.405Z,59.07
2023-04-18T14:22:15.165Z,58.99
2023-04-18T14:24:38.848Z,60.14
2023-04-18T14:27:02.872Z,59.08
2023-04-18T14:29:26.742Z,58.51
2023-04-18T14:31:50.391Z,59.69
2023-04-18T14:34:15.664Z,59.04
2023-04-18T14:36:39.344Z,59.25
2023-04-18T14:39:03.714Z,60.66
2023-04-18T14:41:27.337Z,59.03
2023-04-18T14:43:50.931Z,59.28
2023-04-18T14:46:16.344Z,60.29
2023-04-18T14:48:40.167Z,58.81
2023-04-18T14:51:05.802Z,57.82
2023-04-18T14:53:29.852Z,57.82
2023-04-18T14:55:53.780Z,57.82
2023-04-18T14:58:17.421Z,57.92
2023-04-18T15:00:40.925Z,56.55
2023-04-18T15:03:05.620Z,57.17
2023-04-18T15:05:29.907Z,57.61
2023-04-18T15:07:56.196Z,56.63
2023-04-18T15:10:22.300Z,58.21
2023-04-18T15:12:46.800Z,56.82
2023-04-18T15:15:11.510Z,56.86
2023-04-18T15:17:35.073Z,57.81
2023-04-18T15:20:00.234Z,57.94
2023-04-18T15:22:23.829Z,56.74
2023-04-18T15:24:48.794Z,57.00
2023-04-18T15:27:12.990Z,55.92
2023-04-18T15:29:36.817Z,56.36
2023-04-18T15:32:01.513Z,56.60
2023-04-18T15:34:25.536Z,56.09
2023-04-18T15:36:49.833Z,55.92
2023-04-18T15:39:13.350Z,55.53
2023-04-18T15:41:39.207Z,56.41
2023-04-18T15:44:02.802Z,55.43
2023-04-18T15:46:26.554Z,55.89
2023-04-18T15:48:50.184Z,55.65
2023-04-18T15:51:13.726Z,55.30
2023-04-18T15:53:37.269Z,55.41
2023-04-18T15:56:01.830Z,56.13
2023-04-18T15:58:30.003Z,55.20
2023-04-18T16:00:54.203Z,55.13
2023-04-18T16:03:18.094Z,54.73
2023-04-18T16:05:41.856Z,54.37
2023-04-18T16:08:05.748Z,54.69
2023-04-18T16:10:29.496Z,54.25
2023-04-18T16:12:53.672Z,54.50
2023-04-18T16:15:18.660Z,54.87
2023-04-18T16:17:42.321Z,53.99
2023-04-18T16:20:08.771Z,53.29
2023-04-18T16:22:32.424Z,53.03
2023-04-18T16:24:56.151Z,52.10
2023-04-18T16:27:19.786Z,52.64
2023-04-18T16:29:44.507Z,51.78
2023-04-18T16:32:09.540Z,51.87
2023-04-18T16:34:34.035Z,52.22
2023-04-18T16:36:57.707Z,51.63
2023-04-18T16:39:22.022Z,51.11
2023-04-18T16:41:46.077Z,51.26
2023-04-18T16:44:11.137Z,52.02
2023-04-18T16:46:34.900Z,52.00
2023-04-18T16:49:01.560Z,51.73
2023-04-18T16:51:25.139Z,51.50
2023-04-18T16:53:49.262Z,53.46
2023-04-18T16:56:12.814Z,52.82
2023-04-18T16:58:36.460Z,53.66
2023-04-18T17:00:59.978Z,54.52
2023-04-18T17:03:23.648Z,54.12
2023-04-18T17:05:48.700Z,54.56
2023-04-18T17:08:12.314Z,54.70
2023-04-18T17:10:36.102Z,54.84
2023-04-18T17:13:00.912Z,54.85
2023-04-18T17:15:24.621Z,55.77
2023-04-18T17:17:48.398Z,56.98
2023-04-18T17:20:12.653Z,58.35
2023-04-18T17:22:38.038Z,58.70
2023-04-18T17:25:01.790Z,58.43
2023-04-18T17:27:25.404Z,59.70
2023-04-18T17:29:48.947Z,59.89
2023-04-18T17:32:12.557Z,59.05
2023-04-18T17:34:36.105Z,60.06
2023-04-18T17:36:59.816Z,60.30
2023-04-18T17:39:24.836Z,61.05
2023-04-18T17:41:48.519Z,60.71
2023-04-18T17:44:12.126Z,61.01
2023-04-18T17:46:36.047Z,60.56
2023-04-18T17:48:59.683Z,61.15
2023-04-18T17:51:23.674Z,61.52
2023-04-18T17:53:47.655Z,61.43
2023-04-18T17:56:14.550Z,61.71
2023-04-18T17:58:38.449Z,62.71
2023-04-18T18:01:02.127Z,62.04
2023-04-18T18:03:25.897Z,61.97
2023-04-18T18:05:51.598Z,61.95
2023-04-18T18:08:15.495Z,62.60
2023-04-18T18:10:39.238Z,62.14
2023-04-18T18:13:04.458Z,63.17
2023-04-18T18:15:28.537Z,62.42
2023-04-18T18:17:52.741Z,62.34
2023-04-18T18:20:16.397Z,61.95
2023-04-18T18:22:40.649Z,61.26
2023-04-18T18:25:05.187Z,61.96
2023-04-18T18:27:28.877Z,63.17
2023-04-18T18:29:54.216Z,61.80
2023-04-18T18:32:17.920Z,61.72
2023-04-18T18:34:41.674Z,62.11
2023-04-18T18:37:05.428Z,62.68
2023-04-18T18:39:29.037Z,62.83
2023-04-18T18:41:52.612Z,62.45
2023-04-18T18:44:16.313Z,62.29
2023-04-18T18:46:42.971Z,62.16
2023-04-18T18:49:08.108Z,61.48
2023-04-18T18:51:31.806Z,61.18
2023-04-18T18:53:56.811Z,61.40
2023-04-18T18:56:20.399Z,60.53
2023-04-18T18:58:44.399Z,60.54
2023-04-18T19:01:08.421Z,60.79
2023-04-18T19:03:34.772Z,60.83
2023-04-18T19:05:58.551Z,60.61
2023-04-18T19:08:22.250Z,60.63
2023-04-18T19:10:46.005Z,60.73
2023-04-18T19:13:09.787Z,61.06
2023-04-18T19:15:33.370Z,60.00
2023-04-18T19:17:57.260Z,60.31
2023-04-18T19:20:24.082Z,60.20
2023-04-18T19:22:47.785Z,61.48
2023-04-18T19:25:11.780Z,61.32
2023-04-18T19:27:35.960Z,61.90
2023-04-18T19:29:59.521Z,61.05
2023-04-18T19:32:23.282Z,61.47
2023-04-18T19:34:46.933Z,61.31
2023-04-18T19:37:12.063Z,61.43
2023-04-18T19:39:35.737Z,60.96
2023-04-18T19:41:59.458Z,61.84
2023-04-18T19:44:23.080Z,62.22
2023-04-18T19:46:46.812Z,62.59
2023-04-18T19:49:10.472Z,63.32
2023-04-18T19:51:34.331Z,63.89
2023-04-18T19:53:59.762Z,64.14
2023-04-18T19:56:23.597Z,63.91
2023-04-18T19:58:47.686Z,64.02
2023-04-18T20:01:11.996Z,64.54
2023-04-18T20:03:35.750Z,65.18
2023-04-18T20:05:59.570Z,65.15
2023-04-18T20:08:23.178Z,65.37
2023-04-18T20:10:49.078Z,65.14
2023-04-18T20:13:12.664Z,66.57
2023-04-18T20:15:36.671Z,67.22
2023-04-18T20:18:00.507Z,67.14
2023-04-18T20:20:24.466Z,66.42
2023-04-18T20:22:48.082Z,67.13
2023-04-18T20:25:11.730Z,67.85
2023-04-18T20:27:36.885Z,67.25
2023-04-18T20:30:00.584Z,68.17
2023-04-18T20:32:24.280Z,67.04
2023-04-18T20:34:48.137Z,67.70
2023-04-18T20:37:11.736Z,68.64
2023-04-18T20:39:35.504Z,68.10
2023-04-18T20:41:59.971Z,69.23
2023-04-18T20:44:25.090Z,68.94
2023-04-18T20:46:48.872Z,69.39
2023-04-18T20:49:13.082Z,70.63
2023-04-18T20:51:38.008Z,71.20
2023-04-18T20:54:01.764Z,70.50
2023-04-18T20:56:25.545Z,70.48
2023-04-18T20:58:49.178Z,71.90
2023-04-18T21:01:14.230Z,72.03
2023-04-18T21:03:38.041Z,71.56
2023-04-18T21:06:02.165Z,72.07
2023-04-18T21:08:25.988Z,72.73
2023-04-18T21:10:49.545Z,72.42
2023-04-18T21:13:13.228Z,72.84
2023-04-18T21:15:38.151Z,74.02
2023-04-18T21:18:03.414Z,73.11
2023-04-18T21:20:27.315Z,74.19
2023-04-18T21:22:50.990Z,75.01
2023-04-18T21:25:15.356Z,75.08
2023-04-18T21:27:38.993Z,75.60
2023-04-18T21:30:04.825Z,75.08
2023-04-18T21:32:28.919Z,73.93
2023-04-18T21:34:55.763Z,73.99
2023-04-18T21:37:19.444Z,74.13
2023-04-18T21:39:43.390Z,73.89
2023-04-18T21:42:07.150Z,74.36
2023-04-18T21:44:31.169Z,73.04
2023-04-18T21:46:54.887Z,73.69
2023-04-18T21:49:18.410Z,73.03
2023-04-18T21:51:43.426Z,73.44
2023-04-18T21:54:08.468Z,72.24
2023-04-18T21:56:32.087Z,72.52
2023-04-18T21:58:55.730Z,72.24
2023-04-18T22:01:19.592Z,72.40
2023-04-18T22:03:43.410Z,71.26
2023-04-18T22:06:07.625Z,71.27
2023-04-18T22:08:32.684Z,71.71
2023-04-18T22:10:58.265Z,71.33
2023-04-18T22:13:22.011Z,70.26
2023-04-18T22:15:46.214Z,71.29
2023-04-18T22:18:14.127Z,70.69
2023-04-18T22:20:38.964Z,71.56
2023-04-18T22:23:03.105Z,70.64
2023-04-18T22:25:28.118Z,71.21
2023-04-18T22:27:51.667Z,70.78
2023-04-18T22:30:16.249Z,70.12
2023-04-18T22:32:40.173Z,70.08
2023-04-18T22:35:04.080Z,70.60
2023-04-18T22:37:27.683Z,70.24
2023-04-18T22:39:51.346Z,69.80
2023-04-18T22:42:16.303Z,69.73
2023-04-18T22:44:39.912Z,69.75
2023-04-18T22:47:03.549Z,69.84
2023-04-18T22:49:27.656Z,69.57
2023-04-18T22:51:54.559Z,69.60
2023-04-18T22:54:18.257Z,69.46
2023-04-18T22:56:41.812Z,70.14
2023-04-18T22:59:06.814Z,70.27
2023-04-18T23:01:30.384Z,69.39
2023-04-18T23:03:54.302Z,69.39
2023-04-18T23:06:18.147Z,70.29
2023-04-18T23:08:41.786Z,69.09
2023-04-18T23:11:05.362Z,69.20
2023-04-18T23:13:28.966Z,69.31
2023-04-18T23:15:53.920Z,69.30
2023-04-18T23:18:17.591Z,68.51
2023-04-18T23:20:41.116Z,69.15
2023-04-18T23:23:04.739Z,68.70
2023-04-18T23:25:28.423Z,67.84
2023-04-18T23:27:52.034Z,68.09
2023-04-18T23:30:15.987Z,68.31
2023-04-18T23:32:41.151Z,68.33
2023-04-18T23:35:06.033Z,66.67
2023-04-18T23:37:29.663Z,67.45
2023-04-18T23:39:53.197Z,66.39
2023-04-18T23:42:17.102Z,65.85
2023-04-18T23:44:40.721Z,65.58
2023-04-18T23:47:04.500Z,65.35
2023-04-18T23:49:29.484Z,64.68
2023-04-18T23:51:53.031Z,64.38
2023-04-18T23:54:16.803Z,62.80
2023-04-18T23:56:40.646Z,63.05
2023-04-18T23:59:04.355Z,62.57
